sensor_id;sensor_type;location;lat;lon;timestamp;P1;durP1;ratioP1;P2;durP2;ratioP2
29238;SDS011;16267;48.194;11.546;2023-09-08T00:00:04;3.85;;;2.38;;
29238;SDS011;16267;48.194;11.546;2023-09-08T00:02:32;3.28;;;2.47;;
29238;SDS011;16267;48.194;11.546;2023-09-08T00:04:57;5.00;;;2.38;;
29238;SDS011;16267;48.194;11.546;2023-09-08T00:07:23;3.03;;;2.20;;
29238;SDS011;16267;48.194;11.546;2023-09-08T00:09:49;3.80;;;2.25;;
29238;SDS011;16267;48.194;11.546;2023-09-08T00:12:14;3.88;;;2.33;;
29238;SDS011;16267;48.194;11.546;2023-09-08T00:14:40;5.68;;;2.42;;
29238;SDS011;16267;48.194;11.546;2023-09-08T00:17:07;4.35;;;2.20;;
29238;SDS011;16267;48.194;11.546;2023-09-08T00:19:33;3.10;;;2.17;;
29238;SDS011;16267;48.194;11.546;2023-09-08T00:21:58;4.00;;;2.53;;
29238;SDS011;16267;48.194;11.546;2023-09-08T00:24:25;5.57;;;2.50;;
29238;SDS011;16267;48.194;11.546;2023-09-08T00:26:51;3.55;;;2.35;;
29238;SDS011;16267;48.194;11.546;2023-09-08T00:29:17;2.40;;;1.73;;
29238;SDS011;16267;48.194;11.546;2023-09-08T00:31:43;5.13;;;2.28;;
29238;SDS011;16267;48.194;11.546;2023-09-08T00:34:08;4.72;;;2.35;;
29238;SDS011;16267;48.194;11.546;2023-09-08T00:36:34;4.10;;;2.35;;
29238;SDS011;16267;48.194;11.546;2023-09-08T00:39:01;3.67;;;2.70;;
29238;SDS011;16267;48.194;11.546;2023-09-08T00:41:27;4.80;;;2.10;;
29238;SDS011;16267;48.194;11.546;2023-09-08T00:43:52;4.10;;;2.72;;
29238;SDS011;16267;48.194;11.546;2023-09-08T00:46:18;5.40;;;2.97;;
29238;SDS011;16267;48.194;11.546;2023-09-08T00:48:44;4.80;;;2.80;;
29238;SDS011;16267;48.194;11.546;2023-09-08T00:51:10;6.93;;;2.40;;
29238;SDS011;16267;48.194;11.546;2023-09-08T00:53:36;4.40;;;2.30;;
29238;SDS011;16267;48.194;11.546;2023-09-08T00:56:02;4.07;;;2.38;;
29238;SDS011;16267;48.194;11.546;2023-09-08T00:58:29;4.82;;;2.50;;
29238;SDS011;16267;48.194;11.546;2023-09-08T01:00:55;5.38;;;2.70;;
29238;SDS011;16267;48.194;11.546;2023-09-08T01:03:24;4.30;;;2.50;;
29238;SDS011;16267;48.194;11.546;2023-09-08T01:05:50;4.32;;;2.38;;
29238;SDS011;16267;48.194;11.546;2023-09-08T01:08:17;3.42;;;1.95;;
29238;SDS011;16267;48.194;11.546;2023-09-08T01:10:43;3.88;;;1.90;;
29238;SDS011;16267;48.194;11.546;2023-09-08T01:13:10;4.15;;;2.80;;
29238;SDS011;16267;48.194;11.546;2023-09-08T01:15:36;3.03;;;1.98;;
29238;SDS011;16267;48.194;11.546;2023-09-08T01:18:02;5.65;;;2.47;;
29238;SDS011;16267;48.194;11.546;2023-09-08T01:20:35;3.42;;;2.28;;
29238;SDS011;16267;48.194;11.546;2023-09-08T01:23:21;4.47;;;2.40;;
29238;SDS011;16267;48.194;11.546;2023-09-08T01:25:58;3.47;;;2.05;;
29238;SDS011;16267;48.194;11.546;2023-09-08T01:28:27;3.05;;;2.03;;
29238;SDS011;16267;48.194;11.546;2023-09-08T01:30:54;4.22;;;2.53;;
29238;SDS011;16267;48.194;11.546;2023-09-08T01:33:21;6.60;;;2.65;;
29238;SDS011;16267;48.194;11.546;2023-09-08T01:35:48;4.90;;;2.78;;
29238;SDS011;16267;48.194;11.546;2023-09-08T01:38:14;5.75;;;2.60;;
29238;SDS011;16267;48.194;11.546;2023-09-08T01:40:41;4.95;;;2.60;;
29238;SDS011;16267;48.194;11.546;2023-09-08T01:43:06;3.30;;;2.30;;
29238;SDS011;16267;48.194;11.546;2023-09-08T01:45:32;3.60;;;2.20;;
29238;SDS011;16267;48.194;11.546;2023-09-08T01:47:58;4.63;;;2.25;;
29238;SDS011;16267;48.194;11.546;2023-09-08T01:50:23;4.38;;;2.40;;
29238;SDS011;16267;48.194;11.546;2023-09-08T01:52:50;3.47;;;2.17;;
29238;SDS011;16267;48.194;11.546;2023-09-08T01:55:16;5.13;;;2.88;;
29238;SDS011;16267;48.194;11.546;2023-09-08T01:57:42;4.65;;;2.35;;
29238;SDS011;16267;48.194;11.546;2023-09-08T02:00:09;3.40;;;2.38;;
29238;SDS011;16267;48.194;11.546;2023-09-08T02:02:36;4.30;;;2.95;;
29238;SDS011;16267;48.194;11.546;2023-09-08T02:05:01;5.07;;;2.88;;
29238;SDS011;16267;48.194;11.546;2023-09-08T02:07:28;4.55;;;2.72;;
29238;SDS011;16267;48.194;11.546;2023-09-08T02:09:54;5.47;;;2.83;;
29238;SDS011;16267;48.194;11.546;2023-09-08T02:12:20;4.10;;;2.53;;
29238;SDS011;16267;48.194;11.546;2023-09-08T02:14:46;3.30;;;2.20;;
29238;SDS011;16267;48.194;11.546;2023-09-08T02:17:12;4.05;;;2.50;;
29238;SDS011;16267;48.194;11.546;2023-09-08T02:19:38;3.33;;;2.05;;
29238;SDS011;16267;48.194;11.546;2023-09-08T02:22:04;5.10;;;2.95;;
29238;SDS011;16267;48.194;11.546;2023-09-08T02:24:29;6.22;;;2.60;;
29238;SDS011;16267;48.194;11.546;2023-09-08T02:26:55;3.90;;;2.25;;
29238;SDS011;16267;48.194;11.546;2023-09-08T02:29:21;4.00;;;2.70;;
29238;SDS011;16267;48.194;11.546;2023-09-08T02:31:47;3.95;;;2.13;;
29238;SDS011;16267;48.194;11.546;2023-09-08T02:34:13;3.63;;;2.70;;
29238;SDS011;16267;48.194;11.546;2023-09-08T02:36:39;3.40;;;2.15;;
29238;SDS011;16267;48.194;11.546;2023-09-08T02:39:05;5.07;;;2.67;;
29238;SDS011;16267;48.194;11.546;2023-09-08T02:41:32;5.80;;;2.85;;
29238;SDS011;16267;48.194;11.546;2023-09-08T02:43:57;4.80;;;2.25;;
29238;SDS011;16267;48.194;11.546;2023-09-08T02:46:23;4.13;;;2.67;;
29238;SDS011;16267;48.194;11.546;2023-09-08T02:48:49;4.00;;;2.60;;
29238;SDS011;16267;48.194;11.546;2023-09-08T02:51:16;4.72;;;2.78;;
29238;SDS011;16267;48.194;11.546;2023-09-08T02:53:42;5.72;;;2.28;;
29238;SDS011;16267;48.194;11.546;2023-09-08T02:56:08;5.40;;;3.15;;
29238;SDS011;16267;48.194;11.546;2023-09-08T02:58:34;3.65;;;2.50;;
29238;SDS011;16267;48.194;11.546;2023-09-08T03:01:14;3.90;;;2.03;;
29238;SDS011;16267;48.194;11.546;2023-09-08T03:03:44;4.45;;;2.88;;
29238;SDS011;16267;48.194;11.546;2023-09-08T03:06:12;4.05;;;2.47;;
29238;SDS011;16267;48.194;11.546;2023-09-08T03:08:39;4.13;;;2.58;;
29238;SDS011;16267;48.194;11.546;2023-09-08T03:11:05;4.55;;;2.85;;
29238;SDS011;16267;48.194;11.546;2023-09-08T03:13:31;5.45;;;2.85;;
29238;SDS011;16267;48.194;11.546;2023-09-08T03:16:01;5.38;;;2.97;;
29238;SDS011;16267;48.194;11.546;2023-09-08T03:18:35;5.25;;;2.78;;
29238;SDS011;16267;48.194;11.546;2023-09-08T03:21:02;4.38;;;2.53;;
29238;SDS011;16267;48.194;11.546;2023-09-08T03:23:35;4.85;;;2.40;;
29238;SDS011;16267;48.194;11.546;2023-09-08T03:26:02;4.35;;;2.38;;
29238;SDS011;16267;48.194;11.546;2023-09-08T03:28:28;7.32;;;2.70;;
29238;SDS011;16267;48.194;11.546;2023-09-08T03:30:54;3.80;;;2.25;;
29238;SDS011;16267;48.194;11.546;2023-09-08T03:33:19;6.80;;;2.55;;
29238;SDS011;16267;48.194;11.546;2023-09-08T03:35:45;6.53;;;3.10;;
29238;SDS011;16267;48.194;11.546;2023-09-08T03:38:11;4.80;;;2.72;;
29238;SDS011;16267;48.194;11.546;2023-09-08T03:40:36;5.45;;;2.90;;
29238;SDS011;16267;48.194;11.546;2023-09-08T03:43:03;5.32;;;2.97;;
29238;SDS011;16267;48.194;11.546;2023-09-08T03:45:29;4.18;;;2.50;;
29238;SDS011;16267;48.194;11.546;2023-09-08T03:47:55;11.13;;;2.95;;
29238;SDS011;16267;48.194;11.546;2023-09-08T03:50:21;6.55;;;2.85;;
29238;SDS011;16267;48.194;11.546;2023-09-08T03:52:46;5.03;;;2.65;;
29238;SDS011;16267;48.194;11.546;2023-09-08T03:55:12;4.57;;;2.90;;
29238;SDS011;16267;48.194;11.546;2023-09-08T03:57:38;4.60;;;2.53;;
29238;SDS011;16267;48.194;11.546;2023-09-08T04:00:04;4.38;;;2.60;;
29238;SDS011;16267;48.194;11.546;2023-09-08T04:02:31;4.35;;;2.50;;
29238;SDS011;16267;48.194;11.546;2023-09-08T04:04:58;4.57;;;2.33;;
29238;SDS011;16267;48.194;11.546;2023-09-08T04:07:24;4.85;;;2.65;;
29238;SDS011;16267;48.194;11.546;2023-09-08T04:09:50;5.80;;;2.92;;
29238;SDS011;16267;48.194;11.546;2023-09-08T04:12:15;5.95;;;2.50;;
29238;SDS011;16267;48.194;11.546;2023-09-08T04:14:41;3.75;;;2.63;;
29238;SDS011;16267;48.194;11.546;2023-09-08T04:17:07;5.82;;;2.65;;
29238;SDS011;16267;48.194;11.546;2023-09-08T04:19:33;3.60;;;2.50;;
29238;SDS011;16267;48.194;11.546;2023-09-08T04:21:58;4.30;;;2.28;;
29238;SDS011;16267;48.194;11.546;2023-09-08T04:24:24;6.38;;;2.75;;
29238;SDS011;16267;48.194;11.546;2023-09-08T04:26:50;5.00;;;2.55;;
29238;SDS011;16267;48.194;11.546;2023-09-08T04:29:16;4.60;;;2.55;;
29238;SDS011;16267;48.194;11.546;2023-09-08T04:31:42;3.95;;;2.80;;
29238;SDS011;16267;48.194;11.546;2023-09-08T04:34:07;6.18;;;3.20;;
29238;SDS011;16267;48.194;11.546;2023-09-08T04:36:33;4.32;;;2.50;;
29238;SDS011;16267;48.194;11.546;2023-09-08T04:38:59;3.70;;;2.35;;
29238;SDS011;16267;48.194;11.546;2023-09-08T04:41:24;5.78;;;2.50;;
29238;SDS011;16267;48.194;11.546;2023-09-08T04:43:50;5.38;;;2.88;;
29238;SDS011;16267;48.194;11.546;2023-09-08T04:46:16;8.52;;;3.10;;
29238;SDS011;16267;48.194;11.546;2023-09-08T04:48:42;7.32;;;3.55;;
29238;SDS011;16267;48.194;11.546;2023-09-08T04:51:07;4.80;;;2.95;;
29238;SDS011;16267;48.194;11.546;2023-09-08T04:53:33;4.85;;;2.42;;
29238;SDS011;16267;48.194;11.546;2023-09-08T04:56:01;5.85;;;2.83;;
29238;SDS011;16267;48.194;11.546;2023-09-08T04:58:27;4.07;;;2.75;;
29238;SDS011;16267;48.194;11.546;2023-09-08T05:00:53;4.43;;;2.42;;
29238;SDS011;16267;48.194;11.546;2023-09-08T05:03:18;6.88;;;3.38;;
29238;SDS011;16267;48.194;11.546;2023-09-08T05:05:44;7.07;;;3.33;;
29238;SDS011;16267;48.194;11.546;2023-09-08T05:08:10;7.13;;;3.08;;
29238;SDS011;16267;48.194;11.546;2023-09-08T05:10:36;4.28;;;2.83;;
29238;SDS011;16267;48.194;11.546;2023-09-08T05:13:02;6.13;;;3.50;;
29238;SDS011;16267;48.194;11.546;2023-09-08T05:15:28;4.88;;;2.90;;
29238;SDS011;16267;48.194;11.546;2023-09-08T05:17:55;4.28;;;3.00;;
29238;SDS011;16267;48.194;11.546;2023-09-08T05:20:21;4.72;;;2.78;;
29238;SDS011;16267;48.194;11.546;2023-09-08T05:22:47;7.05;;;2.78;;
29238;SDS011;16267;48.194;11.546;2023-09-08T05:25:12;4.55;;;2.75;;
29238;SDS011;16267;48.194;11.546;2023-09-08T05:27:38;6.25;;;3.35;;
29238;SDS011;16267;48.194;11.546;2023-09-08T05:30:04;4.68;;;2.97;;
29238;SDS011;16267;48.194;11.546;2023-09-08T05:32:35;7.80;;;2.70;;
29238;SDS011;16267;48.194;11.546;2023-09-08T05:35:01;6.35;;;3.08;;
29238;SDS011;16267;48.194;11.546;2023-09-08T05:37:27;7.47;;;3.40;;
29238;SDS011;16267;48.194;11.546;2023-09-08T05:39:53;5.72;;;3.05;;
29238;SDS011;16267;48.194;11.546;2023-09-08T05:42:19;5.75;;;2.85;;
29238;SDS011;16267;48.194;11.546;2023-09-08T05:44:44;6.25;;;3.13;;
29238;SDS011;16267;48.194;11.546;2023-09-08T05:47:11;5.93;;;3.03;;
29238;SDS011;16267;48.194;11.546;2023-09-08T05:49:36;5.75;;;3.53;;
29238;SDS011;16267;48.194;11.546;2023-09-08T05:52:02;5.03;;;3.40;;
29238;SDS011;16267;48.194;11.546;2023-09-08T05:54:28;6.32;;;3.17;;
29238;SDS011;16267;48.194;11.546;2023-09-08T05:56:55;6.72;;;3.45;;
29238;SDS011;16267;48.194;11.546;2023-09-08T05:59:20;6.53;;;3.88;;
29238;SDS011;16267;48.194;11.546;2023-09-08T06:01:46;6.75;;;3.85;;
29238;SDS011;16267;48.194;11.546;2023-09-08T06:04:12;7.38;;;3.55;;
29238;SDS011;16267;48.194;11.546;2023-09-08T06:06:40;6.40;;;3.72;;
29238;SDS011;16267;48.194;11.546;2023-09-08T06:09:05;6.47;;;4.45;;
29238;SDS011;16267;48.194;11.546;2023-09-08T06:11:33;8.38;;;3.75;;
29238;SDS011;16267;48.194;11.546;2023-09-08T06:13:59;7.30;;;4.00;;
29238;SDS011;16267;48.194;11.546;2023-09-08T06:16:25;6.05;;;4.00;;
29238;SDS011;16267;48.194;11.546;2023-09-08T06:18:51;5.13;;;3.05;;
29238;SDS011;16267;48.194;11.546;2023-09-08T06:21:17;6.15;;;4.22;;
29238;SDS011;16267;48.194;11.546;2023-09-08T06:23:42;6.20;;;3.72;;
29238;SDS011;16267;48.194;11.546;2023-09-08T06:26:08;7.10;;;3.58;;
29238;SDS011;16267;48.194;11.546;2023-09-08T06:28:34;9.77;;;3.75;;
29238;SDS011;16267;48.194;11.546;2023-09-08T06:31:00;6.07;;;4.00;;
29238;SDS011;16267;48.194;11.546;2023-09-08T06:33:26;6.32;;;3.60;;
29238;SDS011;16267;48.194;11.546;2023-09-08T06:35:52;6.63;;;4.03;;
29238;SDS011;16267;48.194;11.546;2023-09-08T06:38:18;8.10;;;4.13;;
29238;SDS011;16267;48.194;11.546;2023-09-08T06:40:44;7.32;;;4.32;;
29238;SDS011;16267;48.194;11.546;2023-09-08T06:43:10;7.82;;;4.57;;
29238;SDS011;16267;48.194;11.546;2023-09-08T06:45:39;7.13;;;3.42;;
29238;SDS011;16267;48.194;11.546;2023-09-08T06:48:07;6.60;;;3.80;;
29238;SDS011;16267;48.194;11.546;2023-09-08T06:50:33;5.82;;;3.67;;
29238;SDS011;16267;48.194;11.546;2023-09-08T06:53:00;6.95;;;4.07;;
29238;SDS011;16267;48.194;11.546;2023-09-08T06:55:25;7.22;;;4.28;;
29238;SDS011;16267;48.194;11.546;2023-09-08T06:57:51;10.73;;;4.40;;
29238;SDS011;16267;48.194;11.546;2023-09-08T07:00:17;7.85;;;4.03;;
29238;SDS011;16267;48.194;11.546;2023-09-08T07:02:43;6.78;;;3.95;;
29238;SDS011;16267;48.194;11.546;2023-09-08T07:05:08;8.00;;;4.57;;
29238;SDS011;16267;48.194;11.546;2023-09-08T07:07:34;6.32;;;3.97;;
29238;SDS011;16267;48.194;11.546;2023-09-08T07:10:01;9.52;;;4.10;;
29238;SDS011;16267;48.194;11.546;2023-09-08T07:12:30;7.40;;;4.20;;
29238;SDS011;16267;48.194;11.546;2023-09-08T07:14:56;7.70;;;3.97;;
29238;SDS011;16267;48.194;11.546;2023-09-08T07:17:24;9.20;;;4.47;;
29238;SDS011;16267;48.194;11.546;2023-09-08T07:19:50;10.05;;;4.63;;
29238;SDS011;16267;48.194;11.546;2023-09-08T07:24:46;11.23;;;4.63;;
29238;SDS011;16267;48.194;11.546;2023-09-08T07:27:12;6.72;;;4.57;;
29238;SDS011;16267;48.194;11.546;2023-09-08T07:29:40;10.77;;;4.82;;
29238;SDS011;16267;48.194;11.546;2023-09-08T07:32:07;7.47;;;4.50;;
29238;SDS011;16267;48.194;11.546;2023-09-08T07:34:34;8.50;;;5.00;;
29238;SDS011;16267;48.194;11.546;2023-09-08T07:37:00;6.03;;;3.97;;
29238;SDS011;16267;48.194;11.546;2023-09-08T07:39:26;8.98;;;3.83;;
29238;SDS011;16267;48.194;11.546;2023-09-08T07:42:03;6.95;;;3.97;;
29238;SDS011;16267;48.194;11.546;2023-09-08T07:44:29;7.10;;;4.20;;
29238;SDS011;16267;48.194;11.546;2023-09-08T07:46:55;7.78;;;4.22;;
29238;SDS011;16267;48.194;11.546;2023-09-08T07:49:21;8.20;;;4.43;;
29238;SDS011;16267;48.194;11.546;2023-09-08T07:51:49;9.75;;;4.30;;
29238;SDS011;16267;48.194;11.546;2023-09-08T07:54:14;7.65;;;4.00;;
29238;SDS011;16267;48.194;11.546;2023-09-08T07:56:40;6.72;;;4.28;;
29238;SDS011;16267;48.194;11.546;2023-09-08T07:59:07;10.05;;;3.75;;
29238;SDS011;16267;48.194;11.546;2023-09-08T08:01:32;6.82;;;3.75;;
29238;SDS011;16267;48.194;11.546;2023-09-08T08:03:58;5.78;;;3.72;;
29238;SDS011;16267;48.194;11.546;2023-09-08T08:06:24;6.43;;;3.58;;
29238;SDS011;16267;48.194;11.546;2023-09-08T08:08:50;7.43;;;4.07;;
29238;SDS011;16267;48.194;11.546;2023-09-08T08:11:28;7.90;;;4.10;;
29238;SDS011;16267;48.194;11.546;2023-09-08T08:13:54;5.22;;;3.58;;
29238;SDS011;16267;48.194;11.546;2023-09-08T08:16:21;7.68;;;3.95;;
29238;SDS011;16267;48.194;11.546;2023-09-08T08:19:00;6.57;;;3.50;;
29238;SDS011;16267;48.194;11.546;2023-09-08T08:21:26;6.63;;;4.00;;
29238;SDS011;16267;48.194;11.546;2023-09-08T08:23:52;5.72;;;3.55;;
29238;SDS011;16267;48.194;11.546;2023-09-08T08:26:17;6.90;;;4.32;;
29238;SDS011;16267;48.194;11.546;2023-09-08T08:28:43;6.60;;;4.20;;
29238;SDS011;16267;48.194;11.546;2023-09-08T08:31:09;6.50;;;4.22;;
29238;SDS011;16267;48.194;11.546;2023-09-08T08:33:35;5.43;;;4.15;;
29238;SDS011;16267;48.194;11.546;2023-09-08T08:36:01;7.15;;;3.17;;
29238;SDS011;16267;48.194;11.546;2023-09-08T08:38:26;7.05;;;4.30;;
29238;SDS011;16267;48.194;11.546;2023-09-08T08:40:52;4.85;;;3.33;;
29238;SDS011;16267;48.194;11.546;2023-09-08T08:43:18;7.35;;;3.65;;
29238;SDS011;16267;48.194;11.546;2023-09-08T08:45:46;7.32;;;3.50;;
29238;SDS011;16267;48.194;11.546;2023-09-08T08:48:18;4.88;;;3.47;;
29238;SDS011;16267;48.194;11.546;2023-09-08T08:50:46;8.25;;;4.35;;
29238;SDS011;16267;48.194;11.546;2023-09-08T08:53:12;6.05;;;3.83;;
29238;SDS011;16267;48.194;11.546;2023-09-08T08:55:39;4.32;;;3.05;;
29238;SDS011;16267;48.194;11.546;2023-09-08T08:58:05;7.90;;;3.70;;
29238;SDS011;16267;48.194;11.546;2023-09-08T09:00:33;13.02;;;5.28;;
29238;SDS011;16267;48.194;11.546;2023-09-08T09:03:02;6.22;;;3.70;;
29238;SDS011;16267;48.194;11.546;2023-09-08T09:05:31;5.93;;;3.58;;
29238;SDS011;16267;48.194;11.546;2023-09-08T09:08:00;5.03;;;3.53;;
29238;SDS011;16267;48.194;11.546;2023-09-08T09:10:28;8.18;;;4.90;;
29238;SDS011;16267;48.194;11.546;2023-09-08T09:12:56;6.60;;;3.95;;
29238;SDS011;16267;48.194;11.546;2023-09-08T09:15:29;7.72;;;3.85;;
29238;SDS011;16267;48.194;11.546;2023-09-08T09:18:06;7.70;;;4.10;;
29238;SDS011;16267;48.194;11.546;2023-09-08T09:20:33;5.35;;;3.33;;
29238;SDS011;16267;48.194;11.546;2023-09-08T09:22:59;6.65;;;3.72;;
29238;SDS011;16267;48.194;11.546;2023-09-08T09:25:27;6.50;;;3.72;;
29238;SDS011;16267;48.194;11.546;2023-09-08T09:27:58;6.50;;;3.67;;
29238;SDS011;16267;48.194;11.546;2023-09-08T09:30:26;6.63;;;4.25;;
29238;SDS011;16267;48.194;11.546;2023-09-08T09:33:00;6.90;;;3.63;;
29238;SDS011;16267;48.194;11.546;2023-09-08T09:35:39;5.43;;;3.78;;
29238;SDS011;16267;48.194;11.546;2023-09-08T09:40:39;7.18;;;4.38;;
29238;SDS011;16267;48.194;11.546;2023-09-08T09:43:07;7.80;;;4.00;;
29238;SDS011;16267;48.194;11.546;2023-09-08T09:45:35;5.28;;;4.07;;
29238;SDS011;16267;48.194;11.546;2023-09-08T09:48:02;5.55;;;3.85;;
29238;SDS011;16267;48.194;11.546;2023-09-08T09:50:30;10.43;;;4.25;;
29238;SDS011;16267;48.194;11.546;2023-09-08T09:53:01;6.03;;;3.72;;
29238;SDS011;16267;48.194;11.546;2023-09-08T09:55:33;8.68;;;3.88;;
29238;SDS011;16267;48.194;11.546;2023-09-08T09:58:01;8.02;;;4.55;;
29238;SDS011;16267;48.194;11.546;2023-09-08T10:00:29;7.70;;;4.20;;
29238;SDS011;16267;48.194;11.546;2023-09-08T10:02:58;7.03;;;4.07;;
29238;SDS011;16267;48.194;11.546;2023-09-08T10:05:24;8.07;;;4.20;;
29238;SDS011;16267;48.194;11.546;2023-09-08T10:07:51;6.90;;;3.90;;
29238;SDS011;16267;48.194;11.546;2023-09-08T10:10:18;6.18;;;3.80;;
29238;SDS011;16267;48.194;11.546;2023-09-08T10:12:49;6.07;;;3.45;;
29238;SDS011;16267;48.194;11.546;2023-09-08T10:15:21;5.53;;;3.38;;
29238;SDS011;16267;48.194;11.546;2023-09-08T10:17:54;4.20;;;2.90;;
29238;SDS011;16267;48.194;11.546;2023-09-08T10:20:23;4.72;;;3.15;;
29238;SDS011;16267;48.194;11.546;2023-09-08T10:22:52;7.38;;;3.40;;
29238;SDS011;16267;48.194;11.546;2023-09-08T10:25:31;8.30;;;3.55;;
29238;SDS011;16267;48.194;11.546;2023-09-08T10:28:03;7.05;;;3.75;;
29238;SDS011;16267;48.194;11.546;2023-09-08T10:30:30;5.38;;;3.50;;
29238;SDS011;16267;48.194;11.546;2023-09-08T10:32:57;8.65;;;3.55;;
29238;SDS011;16267;48.194;11.546;2023-09-08T10:35:24;8.40;;;3.58;;
29238;SDS011;16267;48.194;11.546;2023-09-08T10:37:50;5.10;;;3.03;;
29238;SDS011;16267;48.194;11.546;2023-09-08T10:40:21;4.55;;;3.00;;
29238;SDS011;16267;48.194;11.546;2023-09-08T10:42:49;5.93;;;3.75;;
29238;SDS011;16267;48.194;11.546;2023-09-08T10:45:33;4.20;;;2.78;;
29238;SDS011;16267;48.194;11.546;2023-09-08T10:47:59;5.53;;;3.42;;
29238;SDS011;16267;48.194;11.546;2023-09-08T10:50:32;6.18;;;3.28;;
29238;SDS011;16267;48.194;11.546;2023-09-08T10:53:10;5.82;;;3.90;;
29238;SDS011;16267;48.194;11.546;2023-09-08T10:55:43;5.53;;;2.95;;
29238;SDS011;16267;48.194;11.546;2023-09-08T11:00:53;4.63;;;2.90;;
29238;SDS011;16267;48.194;11.546;2023-09-08T11:03:25;7.68;;;3.22;;
29238;SDS011;16267;48.194;11.546;2023-09-08T11:05:53;4.28;;;2.72;;
29238;SDS011;16267;48.194;11.546;2023-09-08T11:08:22;4.15;;;2.85;;
29238;SDS011;16267;48.194;11.546;2023-09-08T11:10:48;5.05;;;3.05;;
29238;SDS011;16267;48.194;11.546;2023-09-08T11:13:14;5.78;;;3.55;;
29238;SDS011;16267;48.194;11.546;2023-09-08T11:15:40;4.90;;;2.72;;
29238;SDS011;16267;48.194;11.546;2023-09-08T11:18:06;13.50;;;6.05;;
29238;SDS011;16267;48.194;11.546;2023-09-08T11:20:33;9.93;;;5.63;;
29238;SDS011;16267;48.194;11.546;2023-09-08T11:22:59;7.25;;;4.05;;
29238;SDS011;16267;48.194;11.546;2023-09-08T11:25:25;5.05;;;3.20;;
29238;SDS011;16267;48.194;11.546;2023-09-08T11:27:51;9.20;;;5.43;;
29238;SDS011;16267;48.194;11.546;2023-09-08T11:30:17;26.75;;;12.77;;
29238;SDS011;16267;48.194;11.546;2023-09-08T11:32:44;8.25;;;4.80;;
29238;SDS011;16267;48.194;11.546;2023-09-08T11:35:10;4.32;;;3.10;;
29238;SDS011;16267;48.194;11.546;2023-09-08T11:37:39;5.43;;;3.08;;
29238;SDS011;16267;48.194;11.546;2023-09-08T11:40:06;8.50;;;3.83;;
29238;SDS011;16267;48.194;11.546;2023-09-08T11:42:35;3.50;;;2.72;;
29238;SDS011;16267;48.194;11.546;2023-09-08T11:45:00;6.03;;;3.55;;
29238;SDS011;16267;48.194;11.546;2023-09-08T11:47:28;5.00;;;3.15;;
29238;SDS011;16267;48.194;11.546;2023-09-08T11:49:55;3.72;;;2.72;;
29238;SDS011;16267;48.194;11.546;2023-09-08T11:52:22;7.25;;;2.70;;
29238;SDS011;16267;48.194;11.546;2023-09-08T11:54:49;5.53;;;3.35;;
29238;SDS011;16267;48.194;11.546;2023-09-08T11:57:16;3.65;;;2.88;;
29238;SDS011;16267;48.194;11.546;2023-09-08T11:59:43;5.43;;;3.10;;
29238;SDS011;16267;48.194;11.546;2023-09-08T12:02:13;3.00;;;2.40;;
29238;SDS011;16267;48.194;11.546;2023-09-08T12:04:39;4.50;;;3.10;;
29238;SDS011;16267;48.194;11.546;2023-09-08T12:07:07;2.85;;;2.60;;
29238;SDS011;16267;48.194;11.546;2023-09-08T12:09:42;5.38;;;2.42;;
29238;SDS011;16267;48.194;11.546;2023-09-08T12:12:11;4.55;;;2.80;;
29238;SDS011;16267;48.194;11.546;2023-09-08T12:14:41;4.53;;;2.90;;
29238;SDS011;16267;48.194;11.546;2023-09-08T12:17:07;4.47;;;2.72;;
29238;SDS011;16267;48.194;11.546;2023-09-08T12:19:33;3.25;;;2.42;;
29238;SDS011;16267;48.194;11.546;2023-09-08T12:22:02;3.45;;;2.53;;
29238;SDS011;16267;48.194;11.546;2023-09-08T12:24:49;4.35;;;3.05;;
29238;SDS011;16267;48.194;11.546;2023-09-08T12:27:18;3.55;;;2.65;;
29238;SDS011;16267;48.194;11.546;2023-09-08T12:32:28;4.43;;;2.85;;
29238;SDS011;16267;48.194;11.546;2023-09-08T12:34:55;3.95;;;2.70;;
29238;SDS011;16267;48.194;11.546;2023-09-08T12:37:23;3.38;;;2.35;;
29238;SDS011;16267;48.194;11.546;2023-09-08T12:42:34;3.97;;;2.67;;
29238;SDS011;16267;48.194;11.546;2023-09-08T12:45:00;3.22;;;2.50;;
29238;SDS011;16267;48.194;11.546;2023-09-08T12:47:26;4.07;;;2.88;;
29238;SDS011;16267;48.194;11.546;2023-09-08T12:49:52;4.38;;;2.60;;
29238;SDS011;16267;48.194;11.546;2023-09-08T12:52:20;3.80;;;2.67;;
29238;SDS011;16267;48.194;11.546;2023-09-08T12:54:46;3.78;;;2.45;;
29238;SDS011;16267;48.194;11.546;2023-09-08T12:57:12;4.50;;;2.90;;
29238;SDS011;16267;48.194;11.546;2023-09-08T12:59:37;3.20;;;2.78;;
29238;SDS011;16267;48.194;11.546;2023-09-08T13:02:03;5.93;;;2.67;;
29238;SDS011;16267;48.194;11.546;2023-09-08T13:04:29;4.05;;;2.83;;
29238;SDS011;16267;48.194;11.546;2023-09-08T13:06:55;3.92;;;2.78;;
29238;SDS011;16267;48.194;11.546;2023-09-08T13:09:23;4.25;;;2.65;;
29238;SDS011;16267;48.194;11.546;2023-09-08T13:11:49;3.67;;;2.40;;
29238;SDS011;16267;48.194;11.546;2023-09-08T13:14:16;4.88;;;3.25;;
29238;SDS011;16267;48.194;11.546;2023-09-08T13:16:42;3.50;;;2.65;;
29238;SDS011;16267;48.194;11.546;2023-09-08T13:19:08;4.03;;;2.65;;
29238;SDS011;16267;48.194;11.546;2023-09-08T13:21:34;3.88;;;2.90;;
29238;SDS011;16267;48.194;11.546;2023-09-08T13:24:07;4.45;;;2.80;;
29238;SDS011;16267;48.194;11.546;2023-09-08T13:26:37;4.93;;;2.47;;
29238;SDS011;16267;48.194;11.546;2023-09-08T13:29:03;2.83;;;2.13;;
29238;SDS011;16267;48.194;11.546;2023-09-08T13:31:30;4.15;;;2.70;;
29238;SDS011;16267;48.194;11.546;2023-09-08T13:34:01;3.63;;;2.70;;
29238;SDS011;16267;48.194;11.546;2023-09-08T13:36:29;5.72;;;2.97;;
29238;SDS011;16267;48.194;11.546;2023-09-08T13:38:58;4.10;;;2.50;;
29238;SDS011;16267;48.194;11.546;2023-09-08T13:41:25;2.70;;;2.17;;
29238;SDS011;16267;48.194;11.546;2023-09-08T13:44:19;3.33;;;2.42;;
29238;SDS011;16267;48.194;11.546;2023-09-08T13:46:46;3.22;;;2.45;;
29238;SDS011;16267;48.194;11.546;2023-09-08T13:49:13;3.22;;;2.47;;
29238;SDS011;16267;48.194;11.546;2023-09-08T13:51:39;4.00;;;2.60;;
29238;SDS011;16267;48.194;11.546;2023-09-08T13:54:08;4.43;;;2.45;;
29238;SDS011;16267;48.194;11.546;2023-09-08T13:56:42;8.00;;;2.63;;
29238;SDS011;16267;48.194;11.546;2023-09-08T13:59:08;4.90;;;2.80;;
29238;SDS011;16267;48.194;11.546;2023-09-08T14:01:35;5.25;;;2.85;;
29238;SDS011;16267;48.194;11.546;2023-09-08T14:04:05;5.07;;;2.85;;
29238;SDS011;16267;48.194;11.546;2023-09-08T14:06:33;3.57;;;2.33;;
29238;SDS011;16267;48.194;11.546;2023-09-08T14:08:59;3.33;;;2.55;;
29238;SDS011;16267;48.194;11.546;2023-09-08T14:11:25;3.40;;;2.47;;
29238;SDS011;16267;48.194;11.546;2023-09-08T14:13:52;4.93;;;2.65;;
29238;SDS011;16267;48.194;11.546;2023-09-08T14:16:18;4.70;;;2.88;;
29238;SDS011;16267;48.194;11.546;2023-09-08T14:18:44;3.05;;;2.42;;
29238;SDS011;16267;48.194;11.546;2023-09-08T14:21:10;3.60;;;2.55;;
29238;SDS011;16267;48.194;11.546;2023-09-08T14:23:36;3.78;;;2.60;;
29238;SDS011;16267;48.194;11.546;2023-09-08T14:26:06;4.28;;;2.90;;
29238;SDS011;16267;48.194;11.546;2023-09-08T14:28:32;4.00;;;2.90;;
29238;SDS011;16267;48.194;11.546;2023-09-08T14:30:59;6.28;;;2.78;;
29238;SDS011;16267;48.194;11.546;2023-09-08T14:33:25;3.72;;;2.63;;
29238;SDS011;16267;48.194;11.546;2023-09-08T14:35:51;4.68;;;2.83;;
29238;SDS011;16267;48.194;11.546;2023-09-08T14:38:18;3.50;;;2.92;;
29238;SDS011;16267;48.194;11.546;2023-09-08T14:40:53;3.08;;;2.15;;
29238;SDS011;16267;48.194;11.546;2023-09-08T14:43:27;3.92;;;2.95;;
29238;SDS011;16267;48.194;11.546;2023-09-08T14:45:54;4.55;;;2.95;;